createdAt,value
2022-10-18T00:01:00.787Z,65.31
2022-10-18T00:03:39.439Z,65.38
2022-10-18T00:06:09.294Z,65.39
2022-10-18T00:08:38.820Z,65.40
2022-10-18T00:11:06.636Z,65.53
2022-10-18T00:13:34.427Z,65.56
2022-10-18T00:16:05.001Z,65.69
2022-10-18T00:18:32.869Z,65.54
2022-10-18T00:21:06.771Z,65.71
2022-10-18T00:23:35.414Z,66.24
2022-10-18T00:26:08.635Z,66.58
2022-10-18T00:28:36.822Z,66.34
2022-10-18T00:31:17.880Z,66.16
2022-10-18T00:33:47.084Z,66.15
2022-10-18T00:36:14.750Z,65.92
2022-10-18T00:38:43.122Z,65.86
2022-10-18T00:41:14.404Z,66.33
2022-10-18T00:44:10.229Z,66.04
2022-10-18T00:46:43.786Z,66.15
2022-10-18T00:49:15.495Z,66.07
2022-10-18T00:51:46.801Z,66.18
2022-10-18T00:54:16.361Z,66.32
2022-10-18T00:56:44.913Z,66.41
2022-10-18T00:59:15.743Z,66.51
2022-10-18T01:01:43.891Z,66.52
2022-10-18T01:04:13.846Z,66.42
2022-10-18T01:07:18.246Z,66.71
2022-10-18T01:10:00.612Z,66.98
2022-10-18T01:12:34.202Z,67.61
2022-10-18T01:15:20.293Z,67.90
2022-10-18T01:18:12.210Z,67.60
2022-10-18T01:20:54.885Z,67.44
2022-10-18T01:23:47.402Z,67.15
2022-10-18T01:26:33.434Z,67.14
2022-10-18T01:29:29.976Z,66.90
2022-10-18T01:32:01.739Z,66.98
2022-10-18T01:34:33.975Z,66.95
2022-10-18T01:37:04.912Z,67.14
2022-10-18T01:39:36.756Z,67.17
2022-10-18T01:42:10.409Z,66.98
2022-10-18T01:44:40.967Z,67.17
2022-10-18T01:47:12.326Z,67.05
2022-10-18T01:49:39.879Z,67.12
2022-10-18T01:52:16.123Z,67.14
2022-10-18T01:54:49.089Z,67.25
2022-10-18T01:57:34.753Z,67.47
2022-10-18T02:00:16.339Z,68.00
2022-10-18T02:02:49.804Z,68.39
2022-10-18T02:05:40.318Z,68.18
2022-10-18T02:08:31.119Z,67.87
2022-10-18T02:11:10.706Z,67.83
2022-10-18T02:13:57.973Z,67.65
2022-10-18T02:16:34.664Z,67.62
2022-10-18T02:19:15.786Z,67.56
2022-10-18T02:21:45.511Z,67.51
2022-10-18T02:24:15.281Z,67.43
2022-10-18T02:26:43.414Z,67.45
2022-10-18T02:29:11.452Z,67.47
2022-10-18T02:31:48.661Z,67.56
2022-10-18T02:34:23.852Z,67.55
2022-10-18T02:36:55.040Z,67.52
2022-10-18T02:39:30.413Z,67.42
2022-10-18T02:41:59.541Z,67.44
2022-10-18T02:44:27.122Z,67.35
2022-10-18T02:46:54.703Z,67.86
2022-10-18T02:49:22.480Z,68.19
2022-10-18T02:51:49.962Z,68.15
2022-10-18T02:54:17.441Z,67.62
2022-10-18T02:56:45.065Z,67.28
2022-10-18T02:59:12.814Z,66.99
2022-10-18T03:01:40.516Z,66.71
2022-10-18T03:04:08.413Z,66.75
2022-10-18T03:06:35.936Z,66.56
2022-10-18T03:09:05.095Z,66.45
2022-10-18T03:11:33.337Z,66.49
2022-10-18T03:14:00.878Z,66.44
2022-10-18T03:16:28.798Z,66.49
2022-10-18T03:18:56.285Z,66.59
2022-10-18T03:21:23.895Z,66.53
2022-10-18T03:23:51.460Z,66.57
2022-10-18T03:26:19.029Z,66.45
2022-10-18T03:28:46.599Z,66.56
2022-10-18T03:31:14.167Z,66.74
2022-10-18T03:33:41.736Z,66.70
2022-10-18T03:36:12.148Z,66.71
2022-10-18T03:38:39.675Z,66.93
2022-10-18T03:41:07.192Z,66.85
2022-10-18T03:43:34.864Z,67.50
2022-10-18T03:46:02.442Z,67.87
2022-10-18T03:48:29.989Z,67.78
2022-10-18T03:50:57.552Z,67.55
2022-10-18T03:53:25.183Z,67.42
2022-10-18T03:55:54.277Z,67.30
2022-10-18T03:58:22.805Z,67.34
2022-10-18T04:00:51.955Z,66.88
2022-10-18T04:03:21.312Z,67.01
2022-10-18T04:05:49.740Z,67.00
2022-10-18T04:08:18.354Z,67.32
2022-10-18T04:10:46.465Z,67.41
2022-10-18T04:13:14.175Z,67.44
2022-10-18T04:15:41.813Z,67.49
2022-10-18T04:18:09.515Z,67.71
2022-10-18T04:20:37.124Z,67.69
2022-10-18T04:23:04.684Z,67.78
2022-10-18T04:25:32.348Z,68.24
2022-10-18T04:27:59.894Z,68.68
2022-10-18T04:30:27.425Z,68.69
2022-10-18T04:32:54.950Z,68.54
2022-10-18T04:35:24.587Z,68.27
2022-10-18T04:37:52.238Z,68.41
2022-10-18T04:40:20.100Z,68.22
2022-10-18T04:42:47.792Z,68.18
2022-10-18T04:45:15.393Z,68.18
2022-10-18T04:47:42.904Z,68.22
2022-10-18T04:50:10.478Z,68.38
2022-10-18T04:52:38.149Z,68.37
2022-10-18T04:55:06.297Z,68.46
2022-10-18T04:57:34.239Z,68.67
2022-10-18T05:00:02.212Z,68.37
2022-10-18T05:02:30.228Z,68.87
2022-10-18T05:04:58.131Z,69.33
2022-10-18T05:07:25.729Z,69.36
2022-10-18T05:09:53.324Z,69.12
2022-10-18T05:12:20.905Z,68.86
2022-10-18T05:14:48.736Z,68.75
2022-10-18T05:17:16.686Z,68.74
2022-10-18T05:19:44.202Z,68.65
2022-10-18T05:22:11.782Z,68.64
2022-10-18T05:24:39.339Z,68.60
2022-10-18T05:27:06.987Z,68.65
2022-10-18T05:29:34.566Z,68.82
2022-10-18T05:32:02.138Z,68.88
2022-10-18T05:34:32.037Z,68.98
2022-10-18T05:36:59.918Z,68.98
2022-10-18T05:39:27.552Z,69.52
2022-10-18T05:41:55.134Z,70.03
2022-10-18T05:44:22.629Z,69.95
2022-10-18T05:46:50.148Z,69.56
2022-10-18T05:49:17.883Z,69.19
2022-10-18T05:51:45.436Z,68.98
2022-10-18T05:54:13.547Z,68.76
2022-10-18T05:56:41.233Z,69.01
2022-10-18T05:59:12.494Z,68.94
2022-10-18T06:01:42.185Z,68.67
2022-10-18T06:04:10.306Z,68.69
2022-10-18T06:06:38.951Z,68.68
2022-10-18T06:09:08.525Z,68.77
2022-10-18T06:11:37.026Z,68.62
2022-10-18T06:14:05.142Z,68.79
2022-10-18T06:16:33.027Z,69.09
2022-10-18T06:19:00.686Z,68.79
2022-10-18T06:21:28.277Z,68.25
2022-10-18T06:23:58.015Z,68.08
2022-10-18T06:26:27.326Z,67.90
2022-10-18T06:28:55.093Z,67.44
2022-10-18T06:31:23.100Z,67.61
2022-10-18T06:33:50.836Z,66.95
2022-10-18T06:36:23.945Z,66.78
2022-10-18T06:38:52.529Z,66.59
2022-10-18T06:41:20.487Z,66.11
2022-10-18T06:43:53.773Z,66.20
2022-10-18T06:46:21.340Z,66.17
2022-10-18T06:48:49.078Z,65.94
2022-10-18T06:51:18.224Z,65.80
2022-10-18T06:53:59.214Z,65.49
2022-10-18T06:56:33.851Z,65.34
2022-10-18T06:59:02.129Z,65.00
2022-10-18T07:01:30.046Z,64.80
2022-10-18T07:03:57.678Z,64.81
2022-10-18T07:06:25.566Z,64.52
2022-10-18T07:08:54.096Z,63.94
2022-10-18T07:11:25.105Z,63.62
2022-10-18T07:14:00.837Z,63.63
2022-10-18T07:16:29.226Z,63.21
2022-10-18T07:18:57.313Z,63.11
2022-10-18T07:21:26.622Z,63.19
2022-10-18T07:23:56.203Z,63.11
2022-10-18T07:26:29.041Z,63.35
2022-10-18T07:29:00.490Z,63.15
2022-10-18T07:31:29.048Z,63.31
2022-10-18T07:33:56.647Z,62.85
2022-10-18T07:36:25.538Z,62.71
2022-10-18T07:38:53.222Z,61.84
2022-10-18T07:41:21.636Z,61.70
2022-10-18T07:43:51.306Z,61.80
2022-10-18T07:46:20.776Z,61.09
2022-10-18T07:48:48.793Z,61.00
2022-10-18T07:51:17.950Z,61.07
2022-10-18T07:53:46.012Z,60.29
2022-10-18T07:56:16.469Z,60.05
2022-10-18T07:58:45.442Z,59.32
2022-10-18T08:01:14.418Z,59.17
2022-10-18T08:03:42.927Z,58.11
2022-10-18T08:06:12.946Z,57.86
2022-10-18T08:08:41.197Z,55.99
2022-10-18T08:11:17.638Z,55.74
2022-10-18T08:13:45.410Z,55.63
2022-10-18T08:16:16.619Z,54.17
2022-10-18T08:18:44.277Z,53.35
2022-10-18T08:21:12.935Z,53.85
2022-10-18T08:23:40.949Z,52.08
2022-10-18T08:26:14.055Z,52.23
2022-10-18T08:28:49.156Z,51.82
2022-10-18T08:31:26.046Z,51.42
2022-10-18T08:33:56.912Z,50.30
2022-10-18T08:36:24.811Z,50.86
2022-10-18T08:38:52.448Z,50.78
2022-10-18T08:41:49.564Z,51.45
2022-10-18T08:44:28.465Z,52.06
2022-10-18T08:47:02.632Z,51.18
2022-10-18T08:49:41.778Z,51.70
2022-10-18T08:52:58.407Z,51.07
2022-10-18T08:55:53.002Z,50.77
2022-10-18T08:58:26.687Z,49.41
2022-10-18T09:01:23.392Z,47.78
2022-10-18T09:03:56.787Z,48.43
2022-10-18T09:06:35.947Z,47.81
2022-10-18T09:09:21.235Z,46.75
2022-10-18T09:12:07.164Z,47.46
2022-10-18T09:14:49.697Z,46.97
2022-10-18T09:17:58.875Z,45.98
2022-10-18T09:20:45.259Z,46.33
2022-10-18T09:23:20.419Z,46.51
2022-10-18T09:25:53.822Z,46.07
2022-10-18T09:28:57.332Z,45.55
2022-10-18T09:31:30.883Z,45.29
2022-10-18T09:34:05.848Z,44.73
2022-10-18T09:36:35.648Z,44.79
2022-10-18T09:39:13.517Z,43.61
2022-10-18T09:41:47.505Z,44.88
2022-10-18T09:44:36.149Z,44.00
2022-10-18T09:47:16.488Z,43.24
2022-10-18T09:49:49.445Z,42.34
2022-10-18T09:52:26.669Z,42.72
2022-10-18T09:54:58.145Z,42.84
2022-10-18T09:57:38.230Z,44.45
2022-10-18T10:00:17.067Z,44.00
2022-10-18T10:02:44.713Z,45.07
2022-10-18T10:05:14.370Z,44.47
2022-10-18T10:07:44.993Z,43.97
2022-10-18T10:10:20.114Z,43.52
2022-10-18T10:12:49.046Z,43.37
2022-10-18T10:15:29.561Z,42.35
2022-10-18T10:18:04.939Z,43.46
2022-10-18T10:20:45.728Z,43.23
2022-10-18T10:23:20.506Z,42.91
2022-10-18T10:26:01.354Z,42.59
2022-10-18T10:28:35.019Z,42.46
2022-10-18T10:31:38.030Z,41.79
2022-10-18T10:34:06.807Z,43.08
2022-10-18T10:36:35.148Z,43.09
2022-10-18T10:39:18.631Z,43.16
2022-10-18T10:41:48.965Z,43.42
2022-10-18T10:44:19.662Z,42.48
2022-10-18T10:46:49.689Z,43.94
2022-10-18T10:52:26.875Z,42.30
2022-10-18T10:57:48.406Z,41.62
2022-10-18T11:00:34.201Z,41.70
2022-10-18T11:03:31.215Z,42.06
2022-10-18T11:06:00.975Z,42.62
2022-10-18T11:08:35.892Z,42.97
2022-10-18T11:11:28.400Z,43.44
2022-10-18T11:14:26.168Z,43.60
2022-10-18T11:17:07.903Z,43.77
2022-10-18T11:20:07.355Z,43.28
2022-10-18T11:23:03.612Z,43.67
2022-10-18T11:25:46.250Z,44.32
2022-10-18T11:28:36.074Z,44.40
2022-10-18T11:31:31.770Z,44.41
2022-10-18T11:34:27.217Z,45.74
2022-10-18T11:37:32.328Z,46.14
2022-10-18T11:40:29.671Z,46.95
2022-10-18T11:43:15.342Z,47.97
2022-10-18T11:46:06.966Z,47.86
2022-10-18T11:49:25.809Z,48.99
2022-10-18T11:52:35.267Z,49.53
2022-10-18T11:55:28.899Z,49.71
2022-10-18T11:58:06.857Z,49.35
2022-10-18T12:00:50.409Z,49.42
2022-10-18T12:03:52.957Z,49.82
2022-10-18T12:06:34.060Z,49.92
2022-10-18T12:09:08.189Z,49.90
2022-10-18T12:11:46.977Z,50.19
2022-10-18T12:14:38.144Z,50.64
2022-10-18T12:17:42.804Z,51.12
2022-10-18T12:20:23.180Z,51.42
2022-10-18T12:23:01.250Z,51.72
2022-10-18T12:25:32.421Z,51.65
2022-10-18T12:28:16.259Z,52.06
2022-10-18T12:31:07.092Z,53.16
2022-10-18T12:33:40.068Z,53.12
2022-10-18T12:36:35.104Z,53.60
2022-10-18T12:39:06.906Z,54.17
2022-10-18T12:41:35.851Z,54.15
2022-10-18T12:44:05.866Z,54.71
2022-10-18T12:46:47.211Z,54.23
2022-10-18T12:49:17.372Z,54.57
2022-10-18T12:51:59.385Z,54.60
2022-10-18T12:54:32.861Z,55.29
2022-10-18T12:57:02.356Z,55.83
2022-10-18T12:59:30.033Z,56.27
2022-10-18T13:02:00.609Z,55.62
2022-10-18T13:04:28.222Z,55.54
2022-10-18T13:06:59.355Z,56.28
2022-10-18T13:09:29.747Z,55.87
2022-10-18T13:12:09.664Z,56.20
2022-10-18T13:15:07.325Z,55.99
2022-10-18T13:17:58.045Z,56.25
2022-10-18T13:20:58.016Z,56.34
2022-10-18T13:23:38.272Z,55.98
2022-10-18T13:26:14.960Z,56.38
2022-10-18T13:28:54.534Z,56.47
2022-10-18T13:32:19.242Z,57.71
2022-10-18T13:34:46.892Z,57.15
2022-10-18T13:37:15.540Z,57.16
2022-10-18T13:39:43.469Z,57.94
2022-10-18T13:42:13.895Z,58.17
2022-10-18T13:44:44.738Z,58.19
2022-10-18T13:47:15.377Z,58.12
2022-10-18T13:50:12.291Z,58.10
2022-10-18T13:53:01.575Z,58.16
2022-10-18T13:55:38.210Z,58.66
2022-10-18T13:58:34.876Z,58.32
2022-10-18T14:01:23.267Z,57.89
2022-10-18T14:04:29.961Z,57.45
2022-10-18T14:07:03.725Z,57.43
2022-10-18T14:09:44.775Z,57.20
2022-10-18T14:12:37.804Z,57.45
2022-10-18T14:15:16.851Z,57.37
2022-10-18T14:17:56.764Z,57.36
2022-10-18T14:20:49.482Z,57.89
2022-10-18T14:23:29.799Z,57.50
2022-10-18T14:26:14.958Z,57.79
2022-10-18T14:29:00.252Z,57.93
2022-10-18T14:31:28.307Z,58.15
2022-10-18T14:33:58.573Z,58.22
2022-10-18T14:36:41.089Z,58.32
2022-10-18T14:39:22.571Z,58.31
2022-10-18T14:41:51.537Z,58.63
2022-10-18T14:44:24.453Z,58.56
2022-10-18T14:47:24.739Z,59.05
2022-10-18T14:49:57.891Z,59.35
2022-10-18T14:52:35.087Z,59.59
2022-10-18T14:55:03.478Z,59.46
2022-10-18T14:57:37.382Z,59.77
2022-10-18T15:00:09.405Z,60.50
2022-10-18T15:02:38.866Z,60.41
2022-10-18T15:05:17.288Z,60.69
2022-10-18T15:07:45.406Z,60.72
2022-10-18T15:10:25.434Z,61.30
2022-10-18T15:13:10.485Z,61.37
2022-10-18T15:15:39.935Z,61.73
2022-10-18T15:18:22.788Z,61.49
2022-10-18T15:21:23.277Z,62.26
2022-10-18T15:23:51.954Z,62.25
2022-10-18T15:26:26.706Z,62.78
2022-10-18T15:28:56.589Z,62.09
2022-10-18T15:31:28.830Z,62.57
2022-10-18T15:34:26.089Z,63.35
2022-10-18T15:36:57.145Z,63.34
2022-10-18T15:39:27.754Z,63.62
2022-10-18T15:41:56.304Z,63.85
2022-10-18T15:44:31.845Z,64.37
2022-10-18T15:47:20.952Z,65.67
2022-10-18T15:49:51.072Z,66.50
2022-10-18T15:52:21.333Z,68.24
2022-10-18T15:57:24.018Z,71.62
2022-10-18T16:00:00.598Z,73.16
2022-10-18T16:02:28.681Z,75.15
2022-10-18T16:05:03.015Z,75.98
2022-10-18T16:07:31.091Z,77.57
2022-10-18T16:09:58.853Z,77.69
2022-10-18T16:12:26.626Z,79.35
2022-10-18T16:14:54.278Z,80.30
2022-10-18T16:17:21.923Z,81.01
2022-10-18T16:19:49.550Z,81.31
2022-10-18T16:22:17.282Z,80.99
2022-10-18T16:24:44.922Z,81.57
2022-10-18T16:27:14.592Z,81.95
2022-10-18T16:29:42.251Z,82.22
2022-10-18T16:32:09.778Z,82.25
2022-10-18T16:34:37.527Z,82.21
2022-10-18T16:37:05.151Z,83.40
2022-10-18T16:39:34.916Z,83.32
2022-10-18T16:42:02.765Z,83.01
2022-10-18T16:44:30.505Z,83.20
2022-10-18T16:46:58.017Z,83.58
2022-10-18T16:49:26.750Z,84.25
2022-10-18T16:51:55.280Z,84.74
2022-10-18T16:54:23.559Z,83.77
2022-10-18T16:56:51.589Z,83.71
2022-10-18T16:59:26.299Z,83.27
2022-10-18T17:01:54.101Z,84.51
2022-10-18T17:04:22.814Z,84.32
2022-10-18T17:06:54.274Z,84.99
2022-10-18T17:09:21.888Z,84.91
2022-10-18T17:11:49.804Z,85.76
2022-10-18T17:14:17.349Z,84.84
2022-10-18T17:16:47.074Z,84.69
2022-10-18T17:19:18.310Z,85.29
2022-10-18T17:21:45.887Z,85.60
2022-10-18T17:24:13.586Z,85.84
2022-10-18T17:26:41.122Z,86.62
2022-10-18T17:29:09.011Z,86.78
2022-10-18T17:31:36.914Z,86.80
2022-10-18T17:34:05.114Z,86.63
2022-10-18T17:36:33.885Z,87.08
2022-10-18T17:39:02.347Z,87.33
2022-10-18T17:41:30.580Z,87.36
2022-10-18T17:43:58.217Z,87.05
2022-10-18T17:46:26.050Z,87.36
2022-10-18T17:48:53.697Z,87.26
2022-10-18T17:51:22.013Z,87.64
2022-10-18T17:53:49.982Z,87.60
2022-10-18T17:56:17.490Z,86.95
2022-10-18T17:58:46.791Z,86.84
2022-10-18T18:01:18.729Z,87.03
2022-10-18T18:03:49.934Z,86.98
2022-10-18T18:06:21.125Z,87.10
2022-10-18T18:08:49.918Z,87.45
2022-10-18T18:11:17.878Z,87.01
2022-10-18T18:13:45.524Z,86.86
2022-10-18T18:16:14.067Z,86.51
2022-10-18T18:18:42.597Z,87.02
2022-10-18T18:21:10.496Z,86.92
2022-10-18T18:23:38.177Z,86.81
2022-10-18T18:26:06.131Z,87.31
2022-10-18T18:28:35.966Z,86.72
2022-10-18T18:31:19.500Z,87.16
2022-10-18T18:33:47.100Z,86.96
2022-10-18T18:36:14.797Z,86.64
2022-10-18T18:38:45.342Z,87.18
2022-10-18T18:41:18.732Z,86.47
2022-10-18T18:43:51.296Z,86.46
2022-10-18T18:46:18.931Z,86.15
2022-10-18T18:48:46.500Z,85.86
2022-10-18T18:51:16.770Z,85.89
2022-10-18T18:53:45.817Z,85.97
2022-10-18T18:56:17.490Z,85.75
2022-10-18T18:58:46.399Z,86.10
2022-10-18T19:01:17.447Z,86.26
2022-10-18T19:03:47.517Z,86.89
2022-10-18T19:06:18.781Z,86.50
2022-10-18T19:08:48.504Z,86.76
2022-10-18T19:11:22.466Z,86.50
2022-10-18T19:13:50.315Z,86.76
2022-10-18T19:16:31.960Z,86.92
2022-10-18T19:19:07.042Z,87.23
2022-10-18T19:21:46.538Z,86.39
2022-10-18T19:24:14.167Z,86.73
2022-10-18T19:26:45.390Z,86.21
2022-10-18T19:29:21.265Z,86.46
2022-10-18T19:31:50.248Z,86.38
2022-10-18T19:34:19.523Z,86.92
2022-10-18T19:36:48.783Z,86.85
2022-10-18T19:39:20.828Z,86.68
2022-10-18T19:41:50.654Z,87.16
2022-10-18T19:44:20.126Z,86.51
2022-10-18T19:46:48.663Z,86.26
2022-10-18T19:49:16.827Z,87.23
2022-10-18T19:51:44.813Z,86.99
2022-10-18T19:54:15.116Z,87.10
2022-10-18T19:56:43.090Z,86.74
2022-10-18T19:59:12.212Z,86.92
2022-10-18T20:01:39.953Z,86.39
2022-10-18T20:04:09.448Z,86.65
2022-10-18T20:06:38.407Z,86.87
2022-10-18T20:09:07.833Z,86.90
2022-10-18T20:11:37.135Z,86.90
2022-10-18T20:14:09.517Z,86.78
2022-10-18T20:16:37.720Z,86.66
2022-10-18T20:19:07.534Z,86.05
2022-10-18T20:21:36.412Z,85.82
2022-10-18T20:24:05.703Z,85.84
2022-10-18T20:26:33.716Z,85.84
2022-10-18T20:29:01.634Z,85.45
2022-10-18T20:31:31.257Z,85.37
2022-10-18T20:34:02.534Z,84.99
2022-10-18T20:36:31.828Z,84.94
2022-10-18T20:38:59.415Z,85.03
2022-10-18T20:41:30.947Z,85.09
2022-10-18T20:44:01.370Z,84.76
2022-10-18T20:46:33.943Z,84.78
2022-10-18T20:49:02.053Z,85.13
2022-10-18T20:51:29.942Z,84.77
2022-10-18T20:53:57.683Z,85.53
2022-10-18T20:56:28.907Z,85.77
2022-10-18T20:58:58.169Z,85.70
2022-10-18T21:01:28.643Z,85.74
2022-10-18T21:03:58.168Z,85.15
2022-10-18T21:06:31.247Z,85.33
2022-10-18T21:09:01.423Z,85.70
2022-10-18T21:11:31.724Z,85.85
2022-10-18T21:14:02.610Z,85.76
2022-10-18T21:16:31.908Z,85.39
2022-10-18T21:19:06.726Z,85.11
2022-10-18T21:21:35.113Z,85.32
2022-10-18T21:24:06.946Z,85.69
2022-10-18T21:26:36.345Z,85.75
2022-10-18T21:29:05.324Z,85.43
2022-10-18T21:31:35.391Z,85.38
2022-10-18T21:34:18.023Z,85.60
2022-10-18T21:36:47.471Z,86.13
2022-10-18T21:39:18.058Z,86.54
2022-10-18T21:41:46.229Z,86.90
2022-10-18T21:44:15.372Z,86.97
2022-10-18T21:46:43.160Z,87.36
2022-10-18T21:49:11.758Z,86.76
2022-10-18T21:51:40.063Z,86.80
2022-10-18T21:54:12.014Z,86.79
2022-10-18T21:56:39.970Z,87.25
2022-10-18T21:59:07.746Z,86.98
2022-10-18T22:01:37.232Z,86.93
2022-10-18T22:04:07.705Z,86.70
2022-10-18T22:06:36.379Z,87.30
2022-10-18T22:09:08.196Z,87.07
2022-10-18T22:11:40.294Z,87.25
2022-10-18T22:14:08.137Z,87.28
2022-10-18T22:16:35.998Z,87.53
2022-10-18T22:24:24.750Z,87.11
2022-10-18T22:26:52.380Z,87.02
2022-10-18T22:29:21.269Z,86.98
2022-10-18T22:31:53.805Z,87.17
2022-10-18T22:34:29.085Z,87.12
2022-10-18T22:36:57.041Z,86.75
2022-10-18T22:39:25.249Z,86.93
2022-10-18T22:41:55.912Z,86.66
2022-10-18T22:44:24.364Z,86.86
2022-10-18T22:46:51.922Z,86.75
2022-10-18T22:49:19.413Z,86.93
2022-10-18T22:51:46.966Z,87.21
2022-10-18T22:54:14.749Z,86.90
2022-10-18T22:56:42.320Z,87.00
2022-10-18T22:59:09.841Z,86.53
2022-10-18T23:01:37.838Z,86.97
2022-10-18T23:04:05.363Z,86.94
2022-10-18T23:06:35.800Z,86.97
2022-10-18T23:09:06.327Z,87.12
2022-10-18T23:11:35.322Z,86.86
2022-10-18T23:14:05.046Z,86.92
2022-10-18T23:16:32.648Z,86.71
2022-10-18T23:19:00.220Z,86.81
2022-10-18T23:21:28.771Z,87.13
2022-10-18T23:23:57.007Z,87.10
2022-10-18T23:26:27.028Z,86.89
2022-10-18T23:28:55.127Z,86.54
2022-10-18T23:31:28.625Z,86.23
2022-10-18T23:33:58.566Z,86.51
2022-10-18T23:36:27.254Z,86.60
2022-10-18T23:38:55.423Z,86.73
2022-10-18T23:41:23.364Z,86.79
2022-10-18T23:43:51.209Z,86.73
2022-10-18T23:46:19.403Z,86.88
2022-10-18T23:48:48.193Z,87.23
2022-10-18T23:51:17.661Z,86.87
2022-10-18T23:53:45.559Z,87.10
2022-10-18T23:56:15.639Z,87.15
2022-10-18T23:58:44.380Z,87.18
